Time;durP1;ratioP1;P1;durP2;ratioP2;P2;SDS_P1;SDS_P2;PMS_P1;PMS_P2;Temp;Humidity;BMP_temperature;BMP_pressure;BME280_temperature;BME280_humidity;BME280_pressure;Samples;Min_cycle;Max_cycle;Signal;HPM_P1;HPM_P2
2023/02/27 00:01:28;;;;;;;2.40;1.23;;;2.60;90.90;;;;;;5029839;28;20166;-74
2023/02/27 00:03:54;;;;;;;1.90;1.20;;;2.60;91.10;;;;;;5029568;28;20264;-74
2023/02/27 00:06:19;;;;;;;1.88;1.20;;;2.60;91.10;;;;;;5029308;28;20257;-74
2023/02/27 00:08:45;;;;;;;2.30;1.00;;;2.60;91.20;;;;;;5012417;28;20193;-74
2023/02/27 00:11:11;;;;;;;2.00;1.13;;;2.60;91.30;;;;;;5029703;28;20592;-74
2023/02/27 00:13:37;;;;;;;4.87;1.00;;;2.50;91.30;;;;;;5012260;28;20206;-74
2023/02/27 00:16:02;;;;;;;2.90;1.23;;;2.50;91.40;;;;;;5013059;28;20619;-74
2023/02/27 00:18:28;;;;;;;1.93;1.07;;;2.50;91.50;;;;;;5011909;28;20833;-75
2023/02/27 00:20:54;;;;;;;3.23;1.00;;;2.50;91.60;;;;;;5012622;28;21151;-74
2023/02/27 00:23:19;;;;;;;2.70;1.20;;;2.50;91.70;;;;;;5012611;28;20173;-74
2023/02/27 00:25:45;;;;;;;4.00;1.13;;;2.50;91.80;;;;;;5012589;28;20284;-75
2023/02/27 00:28:11;;;;;;;2.07;1.10;;;2.40;91.90;;;;;;5030466;28;20197;-75
2023/02/27 00:30:37;;;;;;;1.80;0.97;;;2.40;92.00;;;;;;5030212;28;20166;-75
2023/02/27 00:33:03;;;;;;;1.90;0.90;;;2.40;92.10;;;;;;5014514;28;20223;-75
2023/02/27 00:35:29;;;;;;;2.07;1.27;;;2.40;92.40;;;;;;4996040;28;20265;-74
2023/02/27 00:37:55;;;;;;;2.87;1.20;;;2.40;92.30;;;;;;5014415;28;21155;-75
2023/02/27 00:40:24;;;;;;;1.50;1.00;;;2.30;92.40;;;;;;5015851;28;20170;-74
2023/02/27 00:42:50;;;;;;;1.60;0.90;;;2.30;92.40;;;;;;4999958;28;20182;-73
2023/02/27 00:45:16;;;;;;;2.45;0.88;;;2.30;92.50;;;;;;4999666;28;20261;-74
2023/02/27 00:47:41;;;;;;;2.00;1.30;;;2.30;92.80;;;;;;5016210;28;20269;-74
2023/02/27 00:50:08;;;;;;;3.35;1.10;;;2.20;92.70;;;;;;4999449;28;20161;-74
2023/02/27 00:52:34;;;;;;;1.50;0.80;;;2.20;92.90;;;;;;4999104;28;20201;-74
2023/02/27 00:55:00;;;;;;;2.23;1.00;;;2.20;92.90;;;;;;5019772;28;20213;-74
2023/02/27 00:57:27;;;;;;;1.73;0.98;;;2.20;93.00;;;;;;5033315;28;20629;-74
2023/02/27 00:59:52;;;;;;;2.17;0.90;;;2.10;93.10;;;;;;5031953;28;20206;-75
2023/02/27 01:02:18;;;;;;;4.33;1.10;;;2.20;93.20;;;;;;5015717;28;20197;-74
2023/02/27 01:04:44;;;;;;;2.13;1.00;;;2.10;93.30;;;;;;5015972;28;20165;-74
2023/02/27 01:07:10;;;;;;;2.27;0.90;;;2.10;93.40;;;;;;4999284;28;20193;-74
2023/02/27 01:09:35;;;;;;;2.83;1.10;;;2.10;93.50;;;;;;5018028;28;20198;-74
2023/02/27 01:12:01;;;;;;;2.80;1.20;;;2.10;93.60;;;;;;5032628;28;20906;-74
2023/02/27 01:14:28;;;;;;;1.80;1.08;;;2.10;93.70;;;;;;5015308;28;20640;-74
2023/02/27 01:16:53;;;;;;;4.83;1.37;;;2.10;93.80;;;;;;4999514;28;20197;-74
2023/02/27 01:19:20;;;;;;;6.60;1.73;;;2.10;94.30;;;;;;5014935;28;20247;-73
2023/02/27 01:21:45;;;;;;;2.55;1.25;;;2.10;94.20;;;;;;5011755;28;20170;-74
2023/02/27 01:24:12;;;;;;;4.70;2.57;;;2.10;94.20;;;;;;5013168;28;20713;-75
2023/02/27 01:26:39;;;;;;;5.60;1.85;;;2.10;94.30;;;;;;5013584;28;20170;-74
2023/02/27 01:29:05;;;;;;;5.10;1.90;;;2.10;94.50;;;;;;4995207;28;20205;-74
2023/02/27 01:31:31;;;;;;;3.23;2.20;;;2.10;94.40;;;;;;4994896;28;20987;-75
2023/02/27 01:33:57;;;;;;;2.83;1.77;;;2.10;94.50;;;;;;5013046;28;20631;-74
2023/02/27 01:36:22;;;;;;;3.10;2.23;;;2.10;94.80;;;;;;4995995;28;20589;-74
2023/02/27 01:38:48;;;;;;;5.83;2.00;;;2.10;94.60;;;;;;5013295;28;20689;-74
2023/02/27 01:41:14;;;;;;;2.90;1.20;;;2.10;94.70;;;;;;4978446;28;20586;-75
2023/02/27 01:44:03;;;;;;;3.10;1.43;;;2.10;94.70;;;;;;4995589;28;20204;-74
2023/02/27 01:46:30;;;;;;;5.05;2.25;;;2.00;95.00;;;;;;4998307;28;20186;-75
2023/02/27 01:49:16;;;;;;;2.40;1.42;;;2.00;94.70;;;;;;4998168;28;20221;-75
2023/02/27 01:51:52;;;;;;;3.00;1.40;;;2.00;95.00;;;;;;5013509;28;20185;-75
2023/02/27 01:54:25;;;;;;;1.92;1.08;;;1.90;95.10;;;;;;4998858;28;20201;-74
2023/02/27 01:56:51;;;;;;;2.65;1.02;;;1.90;95.00;;;;;;5014740;28;20201;-74
2023/02/27 01:59:18;;;;;;;4.30;1.20;;;1.90;95.10;;;;;;5031217;28;20280;-75
2023/02/27 02:01:44;;;;;;;2.25;1.10;;;1.90;95.20;;;;;;4980317;28;20288;-75
2023/02/27 02:04:25;;;;;;;4.10;1.42;;;1.90;95.20;;;;;;5014673;28;20228;-75
2023/02/27 02:07:02;;;;;;;2.88;1.10;;;1.80;95.30;;;;;;4998444;28;20524;-75
2023/02/27 02:09:29;;;;;;;2.92;1.40;;;1.80;95.70;;;;;;5013871;28;20339;-75
2023/02/27 02:11:56;;;;;;;3.55;1.17;;;1.80;95.50;;;;;;5005746;28;20174;-75
2023/02/27 02:14:22;;;;;;;2.38;0.98;;;1.80;95.70;;;;;;5023808;28;20737;-75
2023/02/27 02:16:55;;;;;;;2.10;1.10;;;1.70;95.60;;;;;;4998043;28;20653;-75
2023/02/27 02:19:42;;;;;;;2.08;1.20;;;1.70;95.90;;;;;;5052666;23;20294;-79
2023/02/27 02:22:29;;;;;;;1.92;0.90;;;1.70;96.00;;;;;;5050662;28;20239;-78
2023/02/27 02:25:39;;;;;;;1.80;1.27;;;1.70;95.90;;;;;;5030154;28;20191;-79
2023/02/27 02:28:41;;;;;;;2.33;1.42;;;1.70;96.30;;;;;;5050525;28;20180;-79
2023/02/27 02:31:37;;;;;;;2.60;1.20;;;1.60;96.20;;;;;;5045472;28;20184;-79
2023/02/27 02:34:38;;;;;;;2.97;1.33;;;1.70;96.20;;;;;;5014509;28;20565;-79
2023/02/27 02:37:26;;;;;;;3.78;0.90;;;1.60;96.50;;;;;;5031466;28;20166;-79
2023/02/27 02:40:13;;;;;;;3.25;1.48;;;1.60;96.50;;;;;;5031126;28;20736;-79
2023/02/27 02:42:47;;;;;;;3.85;1.85;;;1.60;96.60;;;;;;5031894;28;20288;-79
2023/02/27 02:45:40;;;;;;;3.30;1.45;;;1.60;96.40;;;;;;5031190;28;20173;-79
2023/02/27 02:48:24;;;;;;;4.65;2.47;;;1.50;96.60;;;;;;5045005;28;20541;-79
2023/02/27 02:51:07;;;;;;;4.28;2.40;;;1.50;96.60;;;;;;5030156;28;20186;-80
2023/02/27 02:53:47;;;;;;;12.15;2.85;;;1.50;96.80;;;;;;5014591;28;20584;-80
2023/02/27 02:56:18;;;;;;;4.10;1.92;;;1.50;96.90;;;;;;5030291;28;20224;-79
2023/02/27 02:59:06;;;;;;;3.42;1.38;;;1.40;96.70;;;;;;5030946;28;20236;-79
2023/02/27 03:01:50;;;;;;;2.80;1.50;;;1.50;97.00;;;;;;4996519;28;20173;-79
2023/02/27 03:04:16;;;;;;;1.90;1.20;;;1.50;97.10;;;;;;5038609;28;20165;-79
2023/02/27 03:06:51;;;;;;;2.00;1.40;;;1.40;97.00;;;;;;5039644;28;20180;-80
2023/02/27 03:09:28;;;;;;;5.50;1.60;;;1.40;97.20;;;;;;5035752;28;20260;-80
2023/02/27 03:11:58;;;;;;;3.50;1.10;;;1.40;97.40;;;;;;5046031;28;20233;-80
2023/02/27 03:14:36;;;;;;;2.53;1.33;;;1.40;97.30;;;;;;5048553;28;20575;-80
2023/02/27 03:17:29;;;;;;;4.78;1.10;;;1.40;97.50;;;;;;5021157;28;20225;-79
2023/02/27 03:20:02;;;;;;;2.65;1.10;;;1.40;97.70;;;;;;5002840;28;20222;-79
2023/02/27 03:22:34;;;;;;;2.80;1.45;;;1.40;97.50;;;;;;5030363;28;20184;-79
2023/02/27 03:25:03;;;;;;;3.13;1.58;;;1.40;97.70;;;;;;5030866;28;20231;-79
2023/02/27 03:27:34;;;;;;;4.63;1.40;;;1.40;97.70;;;;;;5030413;28;20200;-79
2023/02/27 03:30:05;;;;;;;1.95;1.17;;;1.30;97.90;;;;;;5030019;28;20216;-79
2023/02/27 03:32:52;;;;;;;6.15;1.10;;;1.30;98.00;;;;;;5013582;28;20209;-80
2023/02/27 03:35:18;;;;;;;4.35;1.40;;;1.30;98.20;;;;;;5030472;28;20174;-79
2023/02/27 03:37:50;;;;;;;2.53;1.20;;;1.30;98.00;;;;;;5030240;28;20169;-80
2023/02/27 03:40:38;;;;;;;2.85;1.10;;;1.20;98.10;;;;;;5029962;28;20196;-79
2023/02/27 03:43:08;;;;;;;4.75;1.58;;;1.20;98.50;;;;;;4997383;28;20177;-79
2023/02/27 03:45:43;;;;;;;2.97;1.60;;;1.20;98.20;;;;;;5030144;28;20226;-79
2023/02/27 03:48:09;;;;;;;2.38;1.38;;;1.20;98.30;;;;;;5030075;28;20170;-79
2023/02/27 03:50:36;;;;;;;1.70;0.90;;;1.20;98.40;;;;;;5029414;28;20201;-80
2023/02/27 03:53:08;;;;;;;2.03;1.15;;;1.20;98.40;;;;;;4997455;28;20271;-79
2023/02/27 03:55:39;;;;;;;4.43;1.20;;;1.10;98.60;;;;;;5034799;28;20699;-79
2023/02/27 03:58:05;;;;;;;2.60;1.08;;;1.10;98.60;;;;;;5013597;28;20177;-80
2023/02/27 04:00:31;;;;;;;3.43;1.20;;;1.10;98.70;;;;;;5028369;28;20185;-80
2023/02/27 04:02:59;;;;;;;2.83;1.38;;;1.10;98.80;;;;;;5029491;28;20615;-80
2023/02/27 04:05:27;;;;;;;1.98;1.00;;;1.00;98.90;;;;;;5029529;28;20644;-79
2023/02/27 04:08:51;;;;;;;1.60;1.20;;;1.00;98.90;;;;;;5014280;28;20672;-78
2023/02/27 04:11:57;;;;;;;2.00;1.25;;;1.00;99.30;;;;;;4953370;28;20198;-79
2023/02/27 04:14:38;;;;;;;1.80;1.20;;;1.00;99.30;;;;;;4926714;28;20222;-79
2023/02/27 04:17:20;;;;;;;2.42;1.27;;;1.00;99.30;;;;;;5002956;28;20197;-79
2023/02/27 04:20:14;;;;;;;2.90;1.75;;;1.00;99.60;;;;;;5033169;28;20915;-79
2023/02/27 04:22:50;;;;;;;3.30;1.35;;;1.00;99.60;;;;;;5013294;28;20175;-78
2023/02/27 04:25:38;;;;;;;2.83;1.52;;;1.00;99.50;;;;;;5014139;28;20264;-79
2023/02/27 04:28:18;;;;;;;3.45;1.80;;;0.90;99.60;;;;;;5013832;28;20249;-80
2023/02/27 04:31:07;;;;;;;4.60;1.80;;;0.90;99.80;;;;;;5013569;28;20573;-81
2023/02/27 04:33:43;;;;;;;4.13;1.90;;;0.90;99.70;;;;;;4991151;28;20222;-80
2023/02/27 04:36:50;;;;;;;1.85;1.45;;;0.90;99.80;;;;;;5015166;28;20162;-80
2023/02/27 04:39:26;;;;;;;2.25;1.23;;;0.90;99.90;;;;;;4953788;29;20624;-80
2023/02/27 04:42:29;;;;;;;2.60;1.20;;;0.90;99.90;;;;;;5010884;28;20189;-82
2023/02/27 04:45:00;;;;;;;2.03;1.20;;;0.90;99.90;;;;;;5007791;28;20669;-81
2023/02/27 04:47:31;;;;;;;2.50;1.40;;;0.90;99.90;;;;;;5017741;28;20262;-81
2023/02/27 04:50:11;;;;;;;2.17;1.10;;;0.80;99.90;;;;;;5018362;28;20186;-83
2023/02/27 04:52:45;;;;;;;9.27;1.67;;;0.90;99.90;;;;;;5017664;28;20174;-82
2023/02/27 04:55:20;;;;;;;3.10;1.75;;;0.80;99.90;;;;;;5018530;28;20273;-82
2023/02/27 04:57:58;;;;;;;2.35;1.80;;;0.90;99.90;;;;;;5023824;28;20169;-81
2023/02/27 05:00:27;;;;;;;2.50;1.48;;;0.80;99.90;;;;;;5041239;28;20194;-82
2023/02/27 05:03:10;;;;;;;3.08;1.80;;;0.80;99.90;;;;;;5029884;28;20170;-81
2023/02/27 05:05:38;;;;;;;3.47;1.80;;;0.80;99.90;;;;;;5013479;28;20170;-81
2023/02/27 05:08:28;;;;;;;3.05;1.67;;;0.80;99.90;;;;;;4994689;28;20194;-81
2023/02/27 05:11:08;;;;;;;3.67;1.90;;;0.80;99.90;;;;;;5028202;28;20177;-82
2023/02/27 05:13:45;;;;;;;2.15;1.20;;;0.80;99.90;;;;;;5039191;28;20213;-81
2023/02/27 05:16:11;;;;;;;3.28;1.60;;;0.80;99.90;;;;;;5044001;28;20204;-81
2023/02/27 05:18:37;;;;;;;3.47;1.90;;;0.80;99.90;;;;;;5045087;28;20166;-81
2023/02/27 05:21:24;;;;;;;2.55;1.55;;;0.70;99.90;;;;;;5042924;28;20166;-81
2023/02/27 05:24:13;;;;;;;2.90;1.73;;;0.70;99.90;;;;;;5047061;28;20177;-81
2023/02/27 05:27:09;;;;;;;4.55;1.65;;;0.70;99.90;;;;;;5050296;28;20596;-81
2023/02/27 05:29:46;;;;;;;4.18;1.80;;;0.70;99.90;;;;;;5040937;28;20189;-81
2023/02/27 05:32:34;;;;;;;3.13;1.52;;;0.60;99.90;;;;;;5046642;28;20522;-81
2023/02/27 05:35:09;;;;;;;3.03;1.55;;;0.60;99.90;;;;;;5047764;28;20204;-81
2023/02/27 05:38:06;;;;;;;1.98;1.40;;;0.70;99.90;;;;;;5046400;28;20169;-81
2023/02/27 05:40:36;;;;;;;1.95;1.40;;;0.60;99.90;;;;;;5034779;28;20197;-80
2023/02/27 05:43:19;;;;;;;2.40;1.65;;;0.60;99.90;;;;;;5035800;28;20177;-81
2023/02/27 05:45:48;;;;;;;2.67;1.52;;;0.60;99.90;;;;;;5040638;28;20212;-80
2023/02/27 05:48:23;;;;;;;2.70;1.40;;;0.60;99.90;;;;;;5045669;28;20173;-81
2023/02/27 05:50:51;;;;;;;3.17;1.80;;;0.60;99.90;;;;;;5033522;28;20239;-80
2023/02/27 05:53:19;;;;;;;5.05;2.30;;;0.50;99.90;;;;;;5033796;28;20193;-81
2023/02/27 05:55:53;;;;;;;2.67;1.65;;;0.60;99.90;;;;;;5040157;28;20178;-80
2023/02/27 05:58:27;;;;;;;2.47;1.42;;;0.60;99.90;;;;;;5038244;28;20227;-80
2023/02/27 06:01:11;;;;;;;2.85;1.60;;;0.60;99.90;;;;;;5035241;28;20202;-81
2023/02/27 06:03:39;;;;;;;3.15;1.85;;;0.60;99.90;;;;;;5036539;28;20185;-81
2023/02/27 06:06:10;;;;;;;3.15;1.75;;;0.60;99.90;;;;;;5040412;28;20174;-80
2023/02/27 06:08:36;;;;;;;5.03;2.53;;;0.60;99.90;;;;;;5033489;28;20186;-81
2023/02/27 06:11:02;;;;;;;4.90;2.20;;;0.50;99.90;;;;;;5032133;28;20169;-81
2023/02/27 06:13:27;;;;;;;2.43;1.53;;;0.60;99.90;;;;;;5033305;28;20217;-81
2023/02/27 06:15:53;;;;;;;4.77;1.60;;;0.60;99.90;;;;;;5037248;28;20603;-81
2023/02/27 06:18:20;;;;;;;6.72;1.90;;;0.50;99.90;;;;;;5036301;28;20177;-80
2023/02/27 06:20:46;;;;;;;3.72;1.60;;;0.60;99.90;;;;;;5034694;28;20284;-82
2023/02/27 06:23:12;;;;;;;2.47;1.60;;;0.60;99.90;;;;;;5043581;28;20212;-81
2023/02/27 06:25:38;;;;;;;4.88;1.80;;;0.60;99.90;;;;;;5037076;28;20189;-81
2023/02/27 06:28:04;;;;;;;3.50;1.90;;;0.60;99.90;;;;;;5036982;28;20181;-81
2023/02/27 06:30:30;;;;;;;2.20;1.40;;;0.60;99.90;;;;;;5033465;28;20620;-80
2023/02/27 06:32:56;;;;;;;2.65;1.88;;;0.60;99.90;;;;;;5033601;28;20181;-81
2023/02/27 06:35:22;;;;;;;3.60;1.80;;;0.60;99.90;;;;;;5036320;28;20256;-82
2023/02/27 06:37:48;;;;;;;3.73;2.37;;;0.60;99.90;;;;;;5034975;28;20575;-81
2023/02/27 06:40:14;;;;;;;3.37;2.23;;;0.60;99.90;;;;;;5034485;28;20194;-80
2023/02/27 06:43:03;;;;;;;6.22;2.10;;;0.60;99.90;;;;;;5037026;28;20674;-80
2023/02/27 06:45:28;;;;;;;8.02;3.10;;;0.70;99.90;;;;;;5035054;28;20231;-80
2023/02/27 06:47:54;;;;;;;5.77;2.53;;;0.70;99.90;;;;;;5035686;28;20194;-80
2023/02/27 06:50:20;;;;;;;3.97;2.27;;;0.70;99.90;;;;;;5032953;28;20240;-80
2023/02/27 06:52:45;;;;;;;4.43;2.80;;;0.70;99.90;;;;;;5031425;28;20193;-79
2023/02/27 06:55:11;;;;;;;4.60;2.13;;;0.70;99.90;;;;;;5014083;28;20177;-79
2023/02/27 06:57:37;;;;;;;4.73;2.37;;;0.80;99.90;;;;;;5031642;28;20593;-79
2023/02/27 07:00:06;;;;;;;5.83;2.50;;;0.80;99.90;;;;;;5031279;28;20601;-80
2023/02/27 07:02:32;;;;;;;2.75;1.80;;;0.80;99.90;;;;;;5032404;28;20506;-79
2023/02/27 07:04:57;;;;;;;3.20;2.05;;;0.90;99.90;;;;;;5029880;28;20902;-80
2023/02/27 07:07:23;;;;;;;3.93;2.33;;;1.00;99.90;;;;;;5030788;28;20205;-81
2023/02/27 07:09:49;;;;;;;4.33;1.80;;;1.00;99.90;;;;;;5031249;28;20221;-81
2023/02/27 07:12:14;;;;;;;3.13;2.40;;;1.10;99.90;;;;;;5031652;28;20170;-81
2023/02/27 07:14:40;;;;;;;5.90;2.10;;;1.10;99.90;;;;;;5030302;28;20251;-81
2023/02/27 07:17:06;;;;;;;3.00;1.90;;;1.20;99.90;;;;;;5031132;28;20212;-80
2023/02/27 07:19:34;;;;;;;3.77;1.60;;;1.20;99.90;;;;;;5031633;28;20612;-81
2023/02/27 07:22:00;;;;;;;2.63;1.70;;;1.30;99.90;;;;;;5030612;28;20581;-82
2023/02/27 07:24:26;;;;;;;4.65;3.00;;;1.40;99.90;;;;;;5031369;28;20177;-79
2023/02/27 07:26:53;;;;;;;3.27;1.33;;;1.50;99.90;;;;;;5029405;28;20242;-81
2023/02/27 07:29:19;;;;;;;2.30;1.48;;;1.50;99.90;;;;;;5026360;28;20201;-82
2023/02/27 07:31:45;;;;;;;2.97;1.37;;;1.60;99.90;;;;;;5008957;28;20540;-80
2023/02/27 07:34:11;;;;;;;3.87;1.60;;;1.70;99.90;;;;;;5024003;28;20698;-81
2023/02/27 07:36:38;;;;;;;3.40;1.90;;;1.70;99.90;;;;;;5030293;28;20196;-81
2023/02/27 07:39:05;;;;;;;3.42;1.73;;;1.90;99.90;;;;;;5034172;28;20238;-81
2023/02/27 07:41:31;;;;;;;4.78;1.88;;;1.90;99.90;;;;;;5029595;28;20770;-80
2023/02/27 07:44:00;;;;;;;3.50;1.58;;;2.00;99.90;;;;;;5029367;28;20174;-80
2023/02/27 07:46:26;;;;;;;3.83;1.90;;;2.10;99.90;;;;;;5029083;28;20208;-80
2023/02/27 07:48:53;;;;;;;5.03;1.77;;;2.10;99.90;;;;;;5029851;28;20197;-80
2023/02/27 07:51:19;;;;;;;3.03;1.40;;;2.20;99.90;;;;;;5028751;28;20178;-79
2023/02/27 07:53:45;;;;;;;1.90;1.13;;;2.30;99.90;;;;;;5029616;28;20255;-80
2023/02/27 07:56:10;;;;;;;3.20;1.53;;;2.30;99.90;;;;;;5029645;28;20387;-79
2023/02/27 07:58:36;;;;;;;3.40;1.77;;;2.40;99.90;;;;;;5029962;28;20591;-80
2023/02/27 08:01:02;;;;;;;4.30;1.70;;;2.50;99.90;;;;;;5028341;28;20645;-81
2023/02/27 08:03:27;;;;;;;2.10;1.60;;;2.50;99.90;;;;;;5030664;28;20185;-78
2023/02/27 08:05:53;;;;;;;3.23;2.73;;;2.60;99.90;;;;;;5029899;28;20189;-78
2023/02/27 08:08:20;;;;;;;3.90;1.45;;;2.70;99.90;;;;;;5029411;28;20182;-80
2023/02/27 08:10:46;;;;;;;2.70;1.60;;;2.80;99.90;;;;;;5022145;28;20201;-80
2023/02/27 08:13:13;;;;;;;3.25;1.80;;;2.90;99.90;;;;;;5025498;28;20267;-80
2023/02/27 08:15:38;;;;;;;4.90;1.80;;;2.90;99.90;;;;;;5035005;28;20204;-78
2023/02/27 08:18:04;;;;;;;3.97;1.50;;;3.00;99.90;;;;;;5030990;28;20662;-78
2023/02/27 08:20:30;;;;;;;3.60;1.50;;;3.10;99.90;;;;;;5029659;28;20288;-79
2023/02/27 08:22:56;;;;;;;4.80;2.10;;;3.20;99.90;;;;;;5029125;28;20573;-81
2023/02/27 08:25:22;;;;;;;4.33;1.80;;;3.30;99.90;;;;;;5029336;28;20170;-80
2023/02/27 08:27:48;;;;;;;4.17;1.60;;;3.40;99.90;;;;;;5013409;28;21114;-79
2023/02/27 08:30:15;;;;;;;2.27;1.47;;;3.50;99.90;;;;;;5027745;28;20194;-81
2023/02/27 08:32:42;;;;;;;2.35;1.65;;;3.90;99.90;;;;;;5045486;22;20169;-75
2023/02/27 08:35:08;;;;;;;2.58;1.25;;;4.60;99.90;;;;;;5030285;28;20197;-75
2023/02/27 08:37:34;;;;;;;3.25;1.30;;;5.60;99.90;;;;;;5034705;28;20185;-78
2023/02/27 08:40:00;;;;;;;3.83;1.60;;;6.70;99.90;;;;;;5028008;28;20165;-75
2023/02/27 08:42:26;;;;;;;3.23;1.17;;;7.90;99.90;;;;;;5028661;28;20185;-75
2023/02/27 08:44:52;;;;;;;2.47;1.40;;;9.10;99.90;;;;;;5029712;28;20248;-76
2023/02/27 08:47:18;;;;;;;2.67;1.20;;;10.40;99.90;;;;;;5028867;28;21009;-76
2023/02/27 08:49:43;;;;;;;4.43;1.27;;;11.70;99.90;;;;;;4995429;28;20646;-76
2023/02/27 08:52:09;;;;;;;1.97;0.90;;;12.90;99.90;;;;;;5028126;28;20638;-76
2023/02/27 08:54:37;;;;;;;2.47;1.50;;;14.00;99.90;;;;;;5030141;28;20216;-76
2023/02/27 08:57:03;;;;;;;1.90;0.90;;;15.10;99.90;;;;;;5012147;28;20169;-76
2023/02/27 08:59:30;;;;;;;2.30;0.90;;;16.00;99.90;;;;;;5030953;28;21249;-76
2023/02/27 09:01:55;;;;;;;2.10;0.93;;;16.90;99.90;;;;;;5032892;28;20181;-76
2023/02/27 09:04:21;;;;;;;2.47;0.90;;;17.60;99.90;;;;;;5031871;28;21044;-76
2023/02/27 09:06:47;;;;;;;1.93;0.83;;;18.40;99.90;;;;;;5033922;28;20181;-76
2023/02/27 09:09:12;;;;;;;2.37;1.03;;;18.80;99.50;;;;;;5033110;28;20638;-76
2023/02/27 09:11:40;;;;;;;2.47;0.87;;;19.30;98.70;;;;;;5031498;28;20575;-78
2023/02/27 09:14:06;;;;;;;2.70;0.97;;;19.90;97.10;;;;;;5018277;28;20659;-79
2023/02/27 09:16:31;;;;;;;4.23;0.80;;;20.30;94.70;;;;;;5033596;28;20568;-80
2023/02/27 09:18:57;;;;;;;2.80;1.00;;;20.70;94.80;;;;;;5029887;28;20636;-80
2023/02/27 09:21:23;;;;;;;1.90;0.80;;;21.20;93.80;;;;;;5014261;28;20186;-80
2023/02/27 09:23:50;;;;;;;2.20;0.87;;;21.50;92.10;;;;;;5033044;28;20194;-79
2023/02/27 09:26:16;;;;;;;2.33;1.10;;;21.80;90.80;;;;;;5031723;28;20933;-79
2023/02/27 09:28:42;;;;;;;1.90;0.90;;;22.20;89.80;;;;;;5031777;28;20580;-79
2023/02/27 09:31:08;;;;;;;2.27;0.80;;;22.40;86.20;;;;;;5025748;28;21164;-79
2023/02/27 09:33:36;;;;;;;1.50;0.80;;;22.70;85.00;;;;;;5032340;28;20654;-79
2023/02/27 09:36:04;;;;;;;2.07;0.90;;;23.00;82.90;;;;;;5040006;28;20173;-79
2023/02/27 09:38:31;;;;;;;2.33;1.03;;;23.10;80.10;;;;;;5032687;28;21019;-77
2023/02/27 09:40:58;;;;;;;1.77;0.73;;;23.30;79.60;;;;;;5031322;28;20584;-79
2023/02/27 09:43:48;;;;;;;1.97;0.77;;;23.50;77.60;;;;;;5031940;28;21151;-79
2023/02/27 09:46:24;;;;;;;4.37;0.90;;;23.70;73.00;;;;;;5031649;28;20580;-79
2023/02/27 09:48:53;;;;;;;2.43;1.10;;;23.60;66.50;;;;;;5032321;28;20572;-78
2023/02/27 09:51:21;;;;;;;2.00;0.90;;;23.70;65.30;;;;;;5035534;28;20581;-78
2023/02/27 09:53:53;;;;;;;1.80;0.77;;;23.70;66.10;;;;;;5036493;28;20746;-78
2023/02/27 09:56:24;;;;;;;2.13;0.70;;;23.70;65.20;;;;;;5031507;28;20638;-78
2023/02/27 09:59:26;;;;;;;1.50;0.80;;;23.70;63.20;;;;;;5032727;28;21690;-78
2023/02/27 10:02:09;;;;;;;1.50;0.70;;;23.80;62.90;;;;;;5013984;28;20579;-77
2023/02/27 10:04:43;;;;;;;1.73;0.80;;;24.00;65.10;;;;;;5014359;28;20647;-78
2023/02/27 10:07:15;;;;;;;1.83;0.77;;;24.20;63.70;;;;;;5032300;28;20569;-78
2023/02/27 10:09:54;;;;;;;1.60;1.00;;;24.10;58.10;;;;;;5030162;28;20595;-79
2023/02/27 10:12:49;;;;;;;2.00;0.90;;;24.20;59.60;;;;;;5013584;28;20592;-78
2023/02/27 10:15:31;;;;;;;2.80;1.00;;;24.30;58.60;;;;;;5029665;28;20968;-78
2023/02/27 10:18:12;;;;;;;2.10;0.87;;;24.30;55.60;;;;;;5030561;28;20916;-78
2023/02/27 10:20:46;;;;;;;3.10;0.87;;;24.30;57.70;;;;;;5031619;28;20593;-79
2023/02/27 10:23:16;;;;;;;2.13;1.00;;;24.30;55.60;;;;;;5029849;28;20746;-78
2023/02/27 10:25:50;;;;;;;1.90;0.70;;;24.10;54.80;;;;;;5030396;28;21178;-79
2023/02/27 10:28:19;;;;;;;1.90;0.60;;;23.90;53.40;;;;;;5017378;28;21026;-79
2023/02/27 10:30:50;;;;;;;2.80;0.73;;;23.50;52.60;;;;;;5030303;28;20607;-79
2023/02/27 10:33:31;;;;;;;2.20;0.60;;;23.10;51.10;;;;;;5031291;28;20701;-79
2023/02/27 10:35:57;;;;;;;2.37;0.60;;;22.80;51.50;;;;;;5014327;28;20592;-79
2023/02/27 10:38:31;;;;;;;2.10;0.57;;;22.30;46.80;;;;;;5032307;28;21366;-79
2023/02/27 10:40:59;;;;;;;1.43;0.60;;;21.50;48.10;;;;;;5013242;28;20599;-79
2023/02/27 10:43:25;;;;;;;1.80;0.60;;;21.00;48.20;;;;;;5030485;28;20715;-79
2023/02/27 10:45:52;;;;;;;1.40;0.60;;;20.60;48.80;;;;;;5031735;28;20623;-78
2023/02/27 10:48:18;;;;;;;1.30;0.60;;;20.40;48.10;;;;;;5030831;28;20580;-79
2023/02/27 10:50:50;;;;;;;1.50;0.60;;;20.30;49.20;;;;;;5030756;28;20695;-78
2023/02/27 10:53:25;;;;;;;1.40;0.60;;;20.00;47.60;;;;;;5029904;28;20643;-78
2023/02/27 10:56:21;;;;;;;1.60;0.77;;;19.80;48.00;;;;;;5029655;28;20918;-78
2023/02/27 10:58:59;;;;;;;1.80;0.70;;;19.50;45.90;;;;;;5030665;28;20593;-78
2023/02/27 11:01:39;;;;;;;2.23;0.60;;;19.10;45.60;;;;;;5028941;28;20924;-78
2023/02/27 11:04:05;;;;;;;1.30;0.60;;;18.70;47.40;;;;;;5034435;28;20615;-78
2023/02/27 11:06:31;;;;;;;1.40;0.50;;;18.70;48.60;;;;;;5031286;28;20572;-78
2023/02/27 11:09:16;;;;;;;1.40;0.50;;;18.60;47.10;;;;;;5030027;28;20549;-78
2023/02/27 11:11:42;;;;;;;1.70;0.60;;;17.80;40.40;;;;;;5046085;28;20632;-79
2023/02/27 11:14:31;;;;;;;1.90;0.70;;;17.60;44.20;;;;;;5046148;28;20636;-78
2023/02/27 11:16:59;;;;;;;1.50;0.57;;;17.20;42.00;;;;;;5030118;28;20188;-77
2023/02/27 11:19:28;;;;;;;1.30;0.50;;;17.10;45.60;;;;;;5030658;28;21045;-77
2023/02/27 11:22:04;;;;;;;1.73;0.60;;;17.10;46.90;;;;;;5024423;28;20682;-77
2023/02/27 11:24:31;;;;;;;1.40;0.60;;;17.20;43.80;;;;;;4996590;28;20619;-79
2023/02/27 11:27:04;;;;;;;1.67;0.70;;;17.30;44.80;;;;;;5030142;28;20639;-78
2023/02/27 11:29:33;;;;;;;1.40;0.60;;;17.20;46.30;;;;;;5029216;28;20573;-78
2023/02/27 11:32:08;;;;;;;1.87;0.60;;;17.30;46.80;;;;;;5029086;28;20568;-79
2023/02/27 11:34:46;;;;;;;1.50;0.60;;;17.30;46.50;;;;;;5028820;28;21170;-79
2023/02/27 11:37:29;;;;;;;1.50;0.70;;;17.30;46.70;;;;;;5029565;28;20580;-79
2023/02/27 11:40:12;;;;;;;1.90;0.80;;;17.30;46.80;;;;;;5028765;28;20584;-79
2023/02/27 11:42:45;;;;;;;2.43;0.60;;;17.30;47.20;;;;;;5032169;28;20699;-79
2023/02/27 11:45:26;;;;;;;1.80;0.60;;;17.30;46.70;;;;;;5028389;28;20623;-79
2023/02/27 11:47:55;;;;;;;1.43;0.70;;;17.30;46.60;;;;;;5027544;28;20604;-79
2023/02/27 11:50:51;;;;;;;1.70;0.70;;;17.40;48.10;;;;;;5010073;28;20573;-79
2023/02/27 11:53:26;;;;;;;1.40;0.60;;;17.30;46.80;;;;;;4992227;28;20640;-79
2023/02/27 11:55:59;;;;;;;2.90;0.70;;;17.40;48.50;;;;;;5029301;28;20592;-79
2023/02/27 11:58:31;;;;;;;3.73;1.07;;;17.40;48.00;;;;;;5021447;28;20608;-79
2023/02/27 12:01:02;;;;;;;1.80;0.80;;;17.30;46.20;;;;;;5025977;28;20599;-79
2023/02/27 12:03:51;;;;;;;1.50;0.70;;;17.30;48.40;;;;;;5012105;28;20628;-79
2023/02/27 12:06:20;;;;;;;2.13;0.90;;;17.20;47.20;;;;;;5027821;28;20723;-78
2023/02/27 12:09:05;;;;;;;1.67;1.00;;;17.20;48.20;;;;;;5020235;28;20620;-78
2023/02/27 12:11:38;;;;;;;1.90;0.80;;;17.10;46.80;;;;;;5027344;28;20615;-76
2023/02/27 12:14:07;;;;;;;1.70;0.70;;;17.10;47.90;;;;;;5028517;28;20698;-76
2023/02/27 12:16:47;;;;;;;1.60;0.60;;;17.00;47.10;;;;;;5027637;28;20707;-76
2023/02/27 12:19:18;;;;;;;1.40;0.67;;;16.80;44.90;;;;;;5023484;28;20624;-77
2023/02/27 12:21:50;;;;;;;1.60;0.70;;;16.80;47.00;;;;;;5010436;28;20604;-76
2023/02/27 12:24:23;;;;;;;1.87;0.97;;;16.70;44.70;;;;;;5037005;28;20720;-76
2023/02/27 12:26:56;;;;;;;1.80;0.90;;;16.50;43.10;;;;;;5023277;28;20682;-77
2023/02/27 12:29:46;;;;;;;2.00;0.80;;;16.00;42.80;;;;;;5021318;28;20595;-76
2023/02/27 12:32:37;;;;;;;2.17;0.60;;;15.70;43.40;;;;;;5028330;28;21259;-76
2023/02/27 12:35:21;;;;;;;1.80;0.70;;;15.30;44.60;;;;;;5032215;28;21375;-76
2023/02/27 12:37:47;;;;;;;2.90;0.87;;;15.20;45.40;;;;;;5027337;28;20645;-76
2023/02/27 12:40:17;;;;;;;1.93;0.80;;;15.10;46.40;;;;;;5033202;28;20592;-76
2023/02/27 12:43:00;;;;;;;1.70;0.90;;;15.00;46.60;;;;;;5030316;28;20620;-76
2023/02/27 12:45:43;;;;;;;4.23;0.70;;;14.90;46.50;;;;;;5033321;28;20955;-75
2023/02/27 12:48:31;;;;;;;2.37;0.70;;;14.60;44.60;;;;;;5032480;28;20585;-79
2023/02/27 12:51:26;;;;;;;1.57;0.70;;;14.20;45.10;;;;;;5031037;28;20592;-78
2023/02/27 12:54:01;;;;;;;2.00;0.80;;;13.70;44.50;;;;;;5008679;28;20657;-78
2023/02/27 12:56:52;;;;;;;1.73;0.77;;;13.20;43.40;;;;;;5016349;28;20572;-78
2023/02/27 12:59:51;;;;;;;2.13;0.80;;;12.80;44.00;;;;;;4996165;28;20581;-78
2023/02/27 13:02:26;;;;;;;2.08;0.80;;;12.20;44.00;;;;;;5012035;28;20231;-78
2023/02/27 13:05:03;;;;;;;2.15;0.70;;;11.90;44.20;;;;;;5013739;28;20256;-78
2023/02/27 13:07:51;;;;;;;1.60;0.70;;;11.60;44.40;;;;;;5011646;28;20181;-78
2023/02/27 13:10:26;;;;;;;1.70;0.70;;;11.30;44.70;;;;;;5012223;28;20185;-77
2023/02/27 13:13:10;;;;;;;3.22;0.90;;;11.00;44.70;;;;;;5012289;28;20224;-77
2023/02/27 13:15:47;;;;;;;1.33;0.60;;;10.60;44.50;;;;;;5022099;28;20192;-77
2023/02/27 13:18:34;;;;;;;1.40;0.70;;;10.40;44.90;;;;;;5031295;28;20176;-77
2023/02/27 13:21:16;;;;;;;1.40;0.60;;;10.30;45.20;;;;;;5032218;28;20169;-77
2023/02/27 13:23:50;;;;;;;1.90;0.80;;;10.10;45.10;;;;;;5031453;28;20197;-77